Time;durP1;ratioP1;P1;durP2;ratioP2;P2;SDS_P1;SDS_P2;PMS_P1;PMS_P2;Temp;Humidity;BMP_temperature;BMP_pressure;BME280_temperature;BME280_humidity;BME280_pressure;Samples;Min_cycle;Max_cycle;Signal;HPM_P1;HPM_P2
2023/11/04 00:01:43;;;;;;;2.10;1.00;;;8.60;99.90;;;;;;5035331;28;20144;-81
2023/11/04 00:04:09;;;;;;;1.92;0.95;;;8.70;99.90;;;;;;5032614;28;20030;-84
2023/11/04 00:06:35;;;;;;;3.17;0.80;;;8.70;99.90;;;;;;5032854;28;20028;-83
2023/11/04 00:09:00;;;;;;;1.40;0.82;;;8.70;99.90;;;;;;5034696;28;20025;-80
2023/11/04 00:11:26;;;;;;;2.45;0.65;;;8.70;99.90;;;;;;5031049;28;20021;-80
2023/11/04 00:13:53;;;;;;;2.03;0.90;;;8.80;99.90;;;;;;5035948;28;20057;-77
2023/11/04 00:16:19;;;;;;;0.95;0.70;;;8.70;99.90;;;;;;5041220;28;20087;-79
2023/11/04 00:18:44;;;;;;;2.13;0.80;;;8.80;99.90;;;;;;5035043;28;20025;-80
2023/11/04 00:21:10;;;;;;;1.52;0.68;;;8.80;99.90;;;;;;5033613;28;20504;-83
2023/11/04 00:23:36;;;;;;;2.20;1.00;;;8.80;99.90;;;;;;5032971;28;20581;-81
2023/11/04 00:26:02;;;;;;;1.33;0.73;;;8.80;99.90;;;;;;5035546;28;20030;-82
2023/11/04 00:28:28;;;;;;;1.55;0.75;;;8.80;99.90;;;;;;5040636;28;20013;-80
2023/11/04 00:30:54;;;;;;;3.47;0.90;;;8.80;99.90;;;;;;5037547;28;20496;-80
2023/11/04 00:33:20;;;;;;;2.30;1.10;;;8.80;99.90;;;;;;5032234;28;20029;-81
2023/11/04 00:35:46;;;;;;;2.55;0.98;;;8.90;99.90;;;;;;5039587;28;20108;-82
2023/11/04 00:38:12;;;;;;;3.10;0.95;;;8.90;99.90;;;;;;5040819;28;20132;-82
2023/11/04 00:40:37;;;;;;;3.60;1.00;;;8.90;99.90;;;;;;5041427;28;20037;-82
2023/11/04 00:43:04;;;;;;;3.67;1.20;;;8.90;99.90;;;;;;5038546;28;20067;-80
2023/11/04 00:45:30;;;;;;;1.45;0.70;;;9.00;99.90;;;;;;5032892;28;20070;-78
2023/11/04 00:47:55;;;;;;;1.88;0.98;;;8.90;99.90;;;;;;5038728;28;20512;-83
2023/11/04 00:50:21;;;;;;;1.67;0.90;;;9.00;99.90;;;;;;5045109;28;20056;-80
2023/11/04 00:52:47;;;;;;;1.20;0.70;;;9.00;99.90;;;;;;5038587;28;20091;-80
2023/11/04 00:55:13;;;;;;;1.20;0.80;;;9.00;99.90;;;;;;5044842;28;20119;-80
2023/11/04 00:57:39;;;;;;;3.05;1.00;;;9.00;99.90;;;;;;5022999;28;20035;-80
2023/11/04 01:00:05;;;;;;;3.08;1.17;;;9.00;99.90;;;;;;5038954;28;20033;-80
2023/11/04 01:02:32;;;;;;;4.88;1.48;;;9.00;99.90;;;;;;5034702;28;20136;-80
2023/11/04 01:04:58;;;;;;;2.72;0.82;;;9.00;99.90;;;;;;5044351;28;20096;-81
2023/11/04 01:07:23;;;;;;;3.08;0.95;;;9.00;99.90;;;;;;5043549;28;20092;-79
2023/11/04 01:09:49;;;;;;;1.85;1.10;;;9.10;99.90;;;;;;5035634;28;20522;-83
2023/11/04 01:12:15;;;;;;;3.22;1.20;;;9.10;99.90;;;;;;5040691;28;20044;-81
2023/11/04 01:14:40;;;;;;;2.25;1.20;;;9.10;99.90;;;;;;5032592;28;20028;-79
2023/11/04 01:17:06;;;;;;;4.18;1.55;;;9.10;99.90;;;;;;5042814;28;20489;-81
2023/11/04 01:19:32;;;;;;;4.13;1.00;;;9.10;99.90;;;;;;5044167;28;20394;-82
2023/11/04 01:21:57;;;;;;;4.38;1.00;;;9.10;99.90;;;;;;5035788;28;20067;-82
2023/11/04 01:24:23;;;;;;;2.13;0.77;;;9.10;99.90;;;;;;5037500;28;20117;-78
2023/11/04 01:26:52;;;;;;;3.35;1.05;;;9.10;99.90;;;;;;5044477;28;20557;-79
2023/11/04 01:29:19;;;;;;;2.65;1.20;;;9.20;99.90;;;;;;5040358;28;20041;-82
2023/11/04 01:31:44;;;;;;;3.47;1.10;;;9.20;99.90;;;;;;5036501;28;20021;-79
2023/11/04 01:34:11;;;;;;;2.88;0.90;;;9.20;99.90;;;;;;5041200;28;20029;-82
2023/11/04 01:36:36;;;;;;;4.18;1.10;;;9.20;99.90;;;;;;5042987;28;20056;-79
2023/11/04 01:39:02;;;;;;;4.90;1.25;;;9.20;99.90;;;;;;5029532;28;20037;-79
2023/11/04 01:41:28;;;;;;;2.47;1.38;;;9.30;99.90;;;;;;5030297;28;20064;-82
2023/11/04 01:43:54;;;;;;;2.90;1.30;;;9.30;99.90;;;;;;5043467;28;20049;-79
2023/11/04 01:46:24;;;;;;;2.42;1.17;;;9.30;99.90;;;;;;5041166;28;20028;-80
2023/11/04 01:48:49;;;;;;;2.15;0.90;;;9.40;99.90;;;;;;5032213;28;20025;-80
2023/11/04 01:51:16;;;;;;;4.78;1.65;;;9.30;99.90;;;;;;5040321;28;20586;-79
2023/11/04 01:53:47;;;;;;;3.78;1.60;;;9.40;99.90;;;;;;5035217;28;20040;-81
2023/11/04 01:56:18;;;;;;;2.22;1.20;;;9.40;99.90;;;;;;5042142;28;20034;-79
2023/11/04 01:58:44;;;;;;;;;;;9.40;99.90;;;;;;5043416;28;20473;-82
2023/11/04 02:01:12;;;;;;;1.98;1.10;;;9.40;99.90;;;;;;5037148;28;20015;-82
2023/11/04 02:03:39;;;;;;;4.03;1.75;;;9.40;99.90;;;;;;5038300;28;20041;-79
2023/11/04 02:06:06;;;;;;;4.78;1.30;;;9.40;99.90;;;;;;5043952;28;20049;-80
2023/11/04 02:08:34;;;;;;;4.72;1.45;;;9.50;99.90;;;;;;5037132;28;20563;-78
2023/11/04 02:11:04;;;;;;;2.85;1.50;;;9.50;99.90;;;;;;5050066;28;20044;-84
2023/11/04 02:13:30;;;;;;;3.40;1.13;;;9.50;99.90;;;;;;5029984;28;20493;-81
2023/11/04 02:15:56;;;;;;;3.80;1.50;;;9.50;99.90;;;;;;5042930;28;20028;-80
2023/11/04 02:18:22;;;;;;;2.85;1.20;;;9.50;99.90;;;;;;5034853;28;20035;-79
2023/11/04 02:20:51;;;;;;;2.63;1.30;;;9.50;99.90;;;;;;5038871;28;20029;-80
2023/11/04 02:23:16;;;;;;;5.75;1.13;;;9.50;99.90;;;;;;5029183;28;20029;-80
2023/11/04 02:25:42;;;;;;;3.42;1.50;;;9.50;99.90;;;;;;5029423;28;20026;-80
2023/11/04 02:28:08;;;;;;;2.22;1.23;;;9.60;99.90;;;;;;5043425;28;20381;-80
2023/11/04 02:30:34;;;;;;;5.35;1.50;;;9.60;99.90;;;;;;5036863;28;20541;-83
2023/11/04 02:32:59;;;;;;;5.13;1.45;;;9.60;99.90;;;;;;5036013;28;20395;-82
2023/11/04 02:35:25;;;;;;;4.63;1.08;;;9.60;99.90;;;;;;5043046;28;20486;-81
2023/11/04 02:37:52;;;;;;;3.03;1.60;;;9.60;99.90;;;;;;5028429;28;20495;-80
2023/11/04 02:40:17;;;;;;;3.85;1.50;;;9.60;99.90;;;;;;5042936;28;20022;-80
2023/11/04 02:42:43;;;;;;;4.63;1.55;;;9.60;99.90;;;;;;5038590;28;20098;-81
2023/11/04 02:45:11;;;;;;;2.95;1.20;;;9.60;99.90;;;;;;5034775;28;20022;-79
2023/11/04 02:47:36;;;;;;;4.50;1.60;;;9.70;99.90;;;;;;5041910;28;20057;-80
2023/11/04 02:50:02;;;;;;;3.13;1.45;;;9.70;99.90;;;;;;5042806;28;20187;-79
2023/11/04 02:52:28;;;;;;;4.75;2.00;;;9.70;99.90;;;;;;5037633;28;20039;-82
2023/11/04 02:54:54;;;;;;;4.45;1.75;;;9.70;99.90;;;;;;5048480;28;20032;-81
2023/11/04 02:57:20;;;;;;;6.90;1.90;;;9.70;99.90;;;;;;5033794;28;20474;-81
2023/11/04 02:59:46;;;;;;;4.40;1.52;;;9.70;99.90;;;;;;5038955;28;20082;-80
2023/11/04 03:02:11;;;;;;;3.90;1.35;;;9.70;99.90;;;;;;5032618;28;20025;-79
2023/11/04 03:04:38;;;;;;;4.28;1.98;;;9.80;99.90;;;;;;5041630;28;20037;-79
2023/11/04 03:07:03;;;;;;;5.00;1.77;;;9.80;99.90;;;;;;5038293;28;20020;-80
2023/11/04 03:09:29;;;;;;;8.73;1.48;;;9.70;99.90;;;;;;5032905;28;20060;-79
2023/11/04 03:11:56;;;;;;;6.90;2.28;;;9.70;99.90;;;;;;5040930;28;20034;-79
2023/11/04 03:14:23;;;;;;;7.00;1.90;;;9.70;99.90;;;;;;5041686;28;20539;-80
2023/11/04 03:16:48;;;;;;;3.60;1.50;;;9.70;99.90;;;;;;5034558;28;20033;-80
2023/11/04 03:19:14;;;;;;;3.65;1.70;;;9.70;99.90;;;;;;5035881;28;20028;-79
2023/11/04 03:21:43;;;;;;;4.55;1.98;;;9.60;99.90;;;;;;5028284;28;20495;-77
2023/11/04 03:24:09;;;;;;;4.20;1.73;;;9.60;99.90;;;;;;5036245;28;20029;-80
2023/11/04 03:26:35;;;;;;;6.43;2.55;;;9.60;99.90;;;;;;5033742;28;20394;-80
2023/11/04 03:29:01;;;;;;;6.68;2.47;;;9.60;99.90;;;;;;5039601;28;20083;-77
2023/11/04 03:31:26;;;;;;;6.43;2.30;;;9.60;99.90;;;;;;5041559;28;20017;-77
2023/11/04 03:33:52;;;;;;;6.75;2.15;;;9.60;99.90;;;;;;5033698;28;20021;-78
2023/11/04 03:36:18;;;;;;;6.60;2.22;;;9.60;99.90;;;;;;5035523;28;20025;-78
2023/11/04 03:38:44;;;;;;;5.93;2.40;;;9.60;99.90;;;;;;5040236;28;20394;-78
2023/11/04 03:41:09;;;;;;;6.82;1.77;;;9.60;99.90;;;;;;5038064;28;20087;-78
2023/11/04 03:43:35;;;;;;;6.50;2.53;;;9.60;99.90;;;;;;5033050;28;20609;-78
2023/11/04 03:46:02;;;;;;;6.30;2.13;;;9.60;99.90;;;;;;5039536;28;20033;-80
2023/11/04 03:48:27;;;;;;;6.30;2.30;;;9.60;99.90;;;;;;5041419;28;20025;-79
2023/11/04 03:50:53;;;;;;;6.43;2.55;;;9.60;99.90;;;;;;5033728;28;20425;-78
2023/11/04 03:53:19;;;;;;;6.93;2.42;;;9.60;99.90;;;;;;5034962;28;20033;-79
2023/11/04 03:55:44;;;;;;;5.07;2.10;;;9.60;99.90;;;;;;5041125;28;20438;-79
2023/11/04 03:58:10;;;;;;;7.20;2.28;;;9.60;99.90;;;;;;5026214;28;20037;-78
2023/11/04 04:00:36;;;;;;;9.63;2.33;;;9.60;99.90;;;;;;5040992;28;20029;-79
2023/11/04 04:03:02;;;;;;;5.53;2.10;;;9.60;99.90;;;;;;5041581;28;20032;-81
2023/11/04 04:05:27;;;;;;;5.10;2.20;;;9.60;99.90;;;;;;5037367;28;20059;-79
2023/11/04 04:07:54;;;;;;;6.65;2.33;;;9.60;99.90;;;;;;5033119;28;20017;-78
2023/11/04 04:10:19;;;;;;;6.22;2.55;;;9.60;99.90;;;;;;5037815;28;20038;-79
2023/11/04 04:12:48;;;;;;;8.95;2.30;;;9.70;99.90;;;;;;5041290;28;20107;-79
2023/11/04 04:15:14;;;;;;;5.07;2.30;;;9.70;99.90;;;;;;5033742;28;20052;-79
2023/11/04 04:17:41;;;;;;;7.10;2.53;;;9.70;99.90;;;;;;5034379;28;20819;-79
2023/11/04 04:20:07;;;;;;;6.05;2.10;;;9.70;99.90;;;;;;5040459;28;20052;-78
2023/11/04 04:22:32;;;;;;;4.88;2.53;;;9.70;99.90;;;;;;5037012;28;20037;-78
2023/11/04 04:24:58;;;;;;;6.68;2.75;;;9.70;99.90;;;;;;5032361;28;20009;-78
2023/11/04 04:27:23;;;;;;;5.82;2.67;;;9.60;99.90;;;;;;5037920;28;20378;-78
2023/11/04 04:29:49;;;;;;;6.05;2.80;;;9.60;99.90;;;;;;5029761;28;20148;-78
2023/11/04 04:32:15;;;;;;;9.15;3.00;;;9.60;99.90;;;;;;5038572;28;20032;-78
2023/11/04 04:34:41;;;;;;;7.07;2.40;;;9.60;99.90;;;;;;5039275;28;20858;-79
2023/11/04 04:37:07;;;;;;;9.30;2.55;;;9.60;99.90;;;;;;5031254;28;20036;-79
2023/11/04 04:39:33;;;;;;;4.85;2.78;;;9.60;99.90;;;;;;5035281;28;20399;-80
2023/11/04 04:41:58;;;;;;;5.72;2.88;;;9.60;99.90;;;;;;5040820;28;20025;-80
2023/11/04 04:44:24;;;;;;;4.57;2.55;;;9.50;99.90;;;;;;5026362;28;20425;-78
2023/11/04 04:46:50;;;;;;;4.90;2.97;;;9.50;99.90;;;;;;5040621;28;20017;-79
2023/11/04 04:49:15;;;;;;;4.13;2.40;;;9.50;99.90;;;;;;5033338;28;20024;-78
2023/11/04 04:51:41;;;;;;;9.05;3.47;;;9.50;99.90;;;;;;5033440;28;20049;-79
2023/11/04 04:54:08;;;;;;;4.68;2.92;;;9.50;99.90;;;;;;5038430;28;20025;-78
2023/11/04 04:56:33;;;;;;;5.50;3.10;;;9.50;99.90;;;;;;5035282;28;20022;-81
2023/11/04 04:58:59;;;;;;;8.60;3.30;;;9.50;99.90;;;;;;5040347;28;20151;-78
2023/11/04 05:01:25;;;;;;;4.32;2.90;;;9.50;99.90;;;;;;5030238;28;20061;-78
2023/11/04 05:03:50;;;;;;;6.95;3.15;;;9.50;99.90;;;;;;5037768;28;20116;-77
2023/11/04 05:06:16;;;;;;;6.82;3.15;;;9.50;99.90;;;;;;5029537;28;20071;-79
2023/11/04 05:08:42;;;;;;;5.68;2.70;;;9.50;99.90;;;;;;5034196;28;20032;-78
2023/11/04 05:11:08;;;;;;;9.20;2.88;;;9.50;99.90;;;;;;5030899;28;20415;-77
2023/11/04 05:13:35;;;;;;;5.30;2.92;;;9.50;99.90;;;;;;5032221;28;20036;-79
2023/11/04 05:16:01;;;;;;;8.43;3.28;;;9.50;99.90;;;;;;5032821;28;20022;-77
2023/11/04 05:18:27;;;;;;;7.15;3.05;;;9.50;99.90;;;;;;5040295;28;20091;-79
2023/11/04 05:20:52;;;;;;;5.05;3.05;;;9.50;99.90;;;;;;5037238;28;20032;-78
2023/11/04 05:23:18;;;;;;;7.00;2.90;;;9.50;99.90;;;;;;5031541;28;20085;-78
2023/11/04 05:25:44;;;;;;;7.47;2.78;;;9.50;99.90;;;;;;5035388;28;20053;-79
2023/11/04 05:28:10;;;;;;;8.15;3.05;;;9.50;99.90;;;;;;5040141;28;20506;-79
2023/11/04 05:30:36;;;;;;;6.00;2.65;;;9.50;99.90;;;;;;5033491;28;20764;-79
2023/11/04 05:33:03;;;;;;;6.47;3.08;;;9.50;99.90;;;;;;5034088;28;20104;-80
2023/11/04 05:35:28;;;;;;;5.03;3.20;;;9.60;99.90;;;;;;5043142;28;20560;-79
2023/11/04 05:37:54;;;;;;;7.30;3.08;;;9.60;99.90;;;;;;5040961;28;20028;-79
2023/11/04 05:40:20;;;;;;;6.10;3.05;;;9.60;99.90;;;;;;5031836;28;20038;-79
2023/11/04 05:42:45;;;;;;;6.50;2.97;;;9.60;99.90;;;;;;5039209;28;20398;-79
2023/11/04 05:45:14;;;;;;;7.05;2.80;;;9.60;99.90;;;;;;5035253;28;20139;-79
2023/11/04 05:47:40;;;;;;;6.25;3.10;;;9.60;99.90;;;;;;5041378;28;20117;-79
2023/11/04 05:50:06;;;;;;;7.72;3.40;;;9.60;99.90;;;;;;5043185;28;20098;-77
2023/11/04 05:52:32;;;;;;;9.73;3.22;;;9.60;99.90;;;;;;5035104;28;20017;-78
2023/11/04 05:54:58;;;;;;;5.15;2.78;;;9.60;99.90;;;;;;5042633;28;20028;-80
2023/11/04 05:57:24;;;;;;;6.60;2.92;;;9.70;99.90;;;;;;5035305;28;20128;-79
2023/11/04 05:59:49;;;;;;;5.80;2.90;;;9.70;99.90;;;;;;5037986;28;20163;-79
2023/11/04 06:02:15;;;;;;;6.70;2.78;;;9.70;99.90;;;;;;5033081;28;20021;-79
2023/11/04 06:04:41;;;;;;;9.52;2.78;;;9.70;99.90;;;;;;5043053;28;20041;-78
2023/11/04 06:07:08;;;;;;;9.10;3.15;;;9.70;99.90;;;;;;5038169;28;20547;-79
2023/11/04 06:09:34;;;;;;;6.97;2.38;;;9.70;99.90;;;;;;5034399;28;20071;-79
2023/11/04 06:12:00;;;;;;;7.60;2.88;;;9.70;99.90;;;;;;5041210;28;20095;-78
2023/11/04 06:14:26;;;;;;;6.50;2.83;;;9.70;99.90;;;;;;5042815;28;20745;-80
2023/11/04 06:16:52;;;;;;;7.10;2.53;;;9.80;99.90;;;;;;5035482;28;20036;-80
2023/11/04 06:19:18;;;;;;;8.50;2.92;;;9.70;99.90;;;;;;5036452;28;20026;-79
2023/11/04 06:21:45;;;;;;;6.40;2.53;;;9.70;99.90;;;;;;5031872;28;20033;-79
2023/11/04 06:24:11;;;;;;;13.07;3.20;;;9.80;99.90;;;;;;5036411;28;20516;-78
2023/11/04 06:26:37;;;;;;;6.07;2.70;;;9.70;99.90;;;;;;5041805;28;20552;-79
2023/11/04 06:29:03;;;;;;;8.93;2.85;;;9.80;99.90;;;;;;5027238;28;20057;-81
2023/11/04 06:31:29;;;;;;;7.82;2.97;;;9.80;99.90;;;;;;5042893;28;20013;-79
2023/11/04 06:33:54;;;;;;;7.68;2.85;;;9.80;99.90;;;;;;5028356;28;20464;-82
2023/11/04 06:36:20;;;;;;;10.48;2.65;;;9.80;99.90;;;;;;5041224;28;20025;-80
2023/11/04 06:38:46;;;;;;;7.00;2.38;;;9.80;99.90;;;;;;5029697;28;20775;-79
2023/11/04 06:41:16;;;;;;;5.90;2.70;;;9.70;99.90;;;;;;5039488;28;20074;-79
2023/11/04 06:43:46;;;;;;;9.25;3.40;;;9.70;99.90;;;;;;5032621;28;20025;-81
2023/11/04 06:46:12;;;;;;;7.38;2.85;;;9.70;99.90;;;;;;5038145;28;20026;-80
2023/11/04 06:48:38;;;;;;;7.00;2.33;;;9.70;99.90;;;;;;5040841;28;20496;-80
2023/11/04 06:51:05;;;;;;;6.75;2.50;;;9.70;99.90;;;;;;5034823;28;20025;-79
2023/11/04 06:53:31;;;;;;;8.45;3.10;;;9.70;99.90;;;;;;5034075;28;20013;-80
2023/11/04 06:55:58;;;;;;;12.50;2.72;;;9.70;99.90;;;;;;5042349;28;20041;-81
2023/11/04 06:58:27;;;;;;;8.80;2.80;;;9.70;99.90;;;;;;5039007;28;20033;-78
2023/11/04 07:00:53;;;;;;;9.02;3.28;;;9.60;99.90;;;;;;5033063;28;20585;-80
2023/11/04 07:03:20;;;;;;;10.50;2.70;;;9.60;99.90;;;;;;5026665;28;20072;-79
2023/11/04 07:05:46;;;;;;;7.35;2.53;;;9.60;99.90;;;;;;5040836;28;20024;-79
2023/11/04 07:08:15;;;;;;;6.13;2.63;;;9.60;99.90;;;;;;5033821;28;20017;-78
2023/11/04 07:10:41;;;;;;;9.10;2.60;;;9.70;99.90;;;;;;5036487;28;20037;-78
2023/11/04 07:13:13;;;;;;;6.50;2.58;;;9.70;99.90;;;;;;5038535;28;20112;-79
2023/11/04 07:15:45;;;;;;;10.63;2.92;;;9.70;99.90;;;;;;5038032;28;20168;-79
2023/11/04 07:18:12;;;;;;;7.32;2.70;;;9.70;99.90;;;;;;5041914;28;20167;-79
2023/11/04 07:20:39;;;;;;;6.35;2.53;;;9.70;99.90;;;;;;5035478;28;20039;-78
2023/11/04 07:23:07;;;;;;;7.30;2.47;;;9.70;99.90;;;;;;5033690;28;20096;-80
2023/11/04 07:25:34;;;;;;;8.82;2.30;;;9.70;99.90;;;;;;5039855;28;20029;-78
2023/11/04 07:28:00;;;;;;;8.60;3.05;;;9.70;99.90;;;;;;5041614;28;20040;-79
2023/11/04 07:30:26;;;;;;;8.65;2.45;;;9.70;99.90;;;;;;5033196;28;20482;-79
2023/11/04 07:32:51;;;;;;;8.52;2.40;;;9.70;99.90;;;;;;5047731;28;20040;-79
2023/11/04 07:35:20;;;;;;;4.30;2.05;;;9.70;99.90;;;;;;5032924;28;20025;-79
2023/11/04 07:37:46;;;;;;;5.95;2.30;;;9.70;99.90;;;;;;5035927;28;20387;-79
2023/11/04 07:40:16;;;;;;;4.65;2.00;;;9.70;99.90;;;;;;5035723;28;20022;-80
2023/11/04 07:42:43;;;;;;;7.63;2.20;;;9.70;99.90;;;;;;5027391;28;20033;-79
2023/11/04 07:45:11;;;;;;;8.98;2.42;;;9.70;99.90;;;;;;5027965;28;20029;-78
2023/11/04 07:47:40;;;;;;;7.25;2.40;;;9.70;99.90;;;;;;5041401;28;20029;-79
2023/11/04 07:50:07;;;;;;;7.18;2.40;;;9.70;99.90;;;;;;5035759;28;20473;-79
2023/11/04 07:52:33;;;;;;;5.00;2.30;;;9.80;99.90;;;;;;5039128;28;20646;-81
2023/11/04 07:54:58;;;;;;;7.60;2.10;;;9.80;99.90;;;;;;5022248;28;20032;-79
2023/11/04 07:57:24;;;;;;;6.55;2.10;;;9.80;99.90;;;;;;5019296;28;20035;-78
2023/11/04 07:59:50;;;;;;;8.35;2.10;;;9.90;99.90;;;;;;5042280;28;20021;-79
2023/11/04 08:02:15;;;;;;;6.07;1.88;;;9.90;99.90;;;;;;5025168;28;20033;-78
2023/11/04 08:04:41;;;;;;;4.47;1.70;;;9.90;99.90;;;;;;5019298;28;20028;-78
2023/11/04 08:07:09;;;;;;;6.50;2.10;;;9.90;99.90;;;;;;5020665;28;20067;-78
2023/11/04 08:09:34;;;;;;;5.63;1.80;;;10.00;99.90;;;;;;5029588;28;20052;-79
2023/11/04 08:12:00;;;;;;;6.80;2.17;;;10.00;99.90;;;;;;5027866;28;20021;-79
2023/11/04 08:14:26;;;;;;;3.50;1.75;;;10.00;99.90;;;;;;5039447;28;20037;-78
2023/11/04 08:16:53;;;;;;;6.05;2.05;;;10.00;99.90;;;;;;5042348;28;20044;-78
2023/11/04 08:19:18;;;;;;;4.43;1.90;;;10.10;99.90;;;;;;5037101;28;20029;-81
2023/11/04 08:21:45;;;;;;;8.00;2.17;;;10.10;99.90;;;;;;5039809;28;20083;-80
2023/11/04 08:24:11;;;;;;;9.73;1.80;;;10.10;99.90;;;;;;5037292;28;20036;-80
2023/11/04 08:26:40;;;;;;;6.72;2.20;;;10.10;99.90;;;;;;5031189;28;20033;-78
2023/11/04 08:29:05;;;;;;;6.07;1.75;;;10.20;99.90;;;;;;5037746;28;20018;-80
2023/11/04 08:31:31;;;;;;;9.35;2.08;;;10.20;99.90;;;;;;5022382;28;20037;-79
2023/11/04 08:33:57;;;;;;;3.33;1.83;;;10.30;99.90;;;;;;5038204;28;20026;-81
2023/11/04 08:36:23;;;;;;;6.18;1.90;;;10.30;99.90;;;;;;5039584;28;20079;-80
2023/11/04 08:38:48;;;;;;;6.60;1.98;;;10.40;99.90;;;;;;5028004;28;20029;-81
2023/11/04 08:41:14;;;;;;;7.05;1.60;;;10.40;99.90;;;;;;5027094;28;20026;-80
2023/11/04 08:43:40;;;;;;;5.15;1.83;;;10.50;99.90;;;;;;5035796;28;20461;-81
2023/11/04 08:46:07;;;;;;;6.80;1.58;;;10.50;99.90;;;;;;5037322;28;20430;-81
2023/11/04 08:48:33;;;;;;;4.18;1.30;;;10.50;99.90;;;;;;5021174;28;20434;-79
2023/11/04 08:50:58;;;;;;;3.58;1.17;;;10.50;99.90;;;;;;5031849;28;20398;-80
2023/11/04 08:53:24;;;;;;;5.28;1.23;;;10.50;99.90;;;;;;5026186;28;20104;-81
2023/11/04 08:55:50;;;;;;;2.78;1.42;;;10.50;99.90;;;;;;5040331;28;20364;-81
2023/11/04 08:58:15;;;;;;;4.57;1.40;;;10.50;99.90;;;;;;5032041;28;20060;-80
2023/11/04 09:00:44;;;;;;;4.15;1.25;;;10.50;99.90;;;;;;5033803;28;20029;-80
2023/11/04 09:03:10;;;;;;;4.15;1.55;;;10.50;99.90;;;;;;5031065;28;20053;-80
2023/11/04 09:05:36;;;;;;;3.60;1.55;;;10.50;99.90;;;;;;5039905;28;20064;-80
2023/11/04 09:08:01;;;;;;;3.72;1.17;;;10.60;99.90;;;;;;5024722;28;20021;-82
2023/11/04 09:10:27;;;;;;;8.60;1.30;;;10.60;99.90;;;;;;5035296;28;20072;-80
2023/11/04 09:12:53;;;;;;;4.35;1.10;;;10.60;99.90;;;;;;5037460;28;20107;-80
2023/11/04 09:15:19;;;;;;;5.50;1.40;;;10.70;99.90;;;;;;5035581;28;20026;-82
2023/11/04 09:17:45;;;;;;;3.53;1.30;;;10.70;99.90;;;;;;5042677;28;20121;-81
2023/11/04 09:20:11;;;;;;;4.90;1.40;;;10.70;99.90;;;;;;5034112;28;20103;-81
2023/11/04 09:22:37;;;;;;;6.00;1.33;;;10.80;99.90;;;;;;5040963;28;20025;-81
2023/11/04 09:25:03;;;;;;;3.33;1.30;;;10.80;99.90;;;;;;5025846;28;20453;-81
2023/11/04 09:27:29;;;;;;;3.85;1.30;;;10.80;99.90;;;;;;5038628;28;20031;-79
2023/11/04 09:29:55;;;;;;;3.55;1.27;;;10.90;99.90;;;;;;5043363;28;20036;-82
2023/11/04 09:32:21;;;;;;;1.98;0.88;;;11.00;99.90;;;;;;5030190;28;20103;-81
2023/11/04 09:34:47;;;;;;;5.25;1.25;;;11.00;99.90;;;;;;5043521;28;20045;-82
2023/11/04 09:37:13;;;;;;;2.63;0.85;;;11.10;99.90;;;;;;5030411;28;20024;-84
2023/11/04 09:39:39;;;;;;;3.55;1.33;;;11.10;99.90;;;;;;5025887;28;20026;-82
2023/11/04 09:42:09;;;;;;;3.33;0.85;;;11.20;99.90;;;;;;5032644;28;20083;-79
2023/11/04 09:44:35;;;;;;;2.90;1.00;;;11.20;99.90;;;;;;5029013;28;20017;-79
2023/11/04 09:47:01;;;;;;;4.47;1.20;;;11.30;99.90;;;;;;5037878;28;20028;-79
2023/11/04 09:49:27;;;;;;;3.60;1.30;;;11.30;99.90;;;;;;5013739;28;20028;-81
2023/11/04 09:51:59;;;;;;;4.43;1.20;;;11.40;99.90;;;;;;5037542;28;20025;-79
2023/11/04 09:54:25;;;;;;;4.15;1.00;;;11.40;99.90;;;;;;5042850;28;20146;-80
2023/11/04 09:56:51;;;;;;;2.90;1.40;;;11.40;99.90;;;;;;5036406;28;20064;-80
2023/11/04 09:59:17;;;;;;;3.45;1.05;;;11.40;99.90;;;;;;5035620;28;20065;-79
2023/11/04 10:01:42;;;;;;;3.20;1.10;;;11.40;99.90;;;;;;5032051;28;20044;-81
2023/11/04 10:04:09;;;;;;;2.22;0.93;;;11.40;99.90;;;;;;5028668;28;20141;-80
2023/11/04 10:06:35;;;;;;;2.13;1.13;;;11.40;99.90;;;;;;5042032;28;20447;-80
2023/11/04 10:09:01;;;;;;;5.72;1.33;;;11.40;99.90;;;;;;5039996;28;20025;-80
2023/11/04 10:11:28;;;;;;;2.65;1.10;;;11.30;99.90;;;;;;5027982;28;20587;-79
2023/11/04 10:13:55;;;;;;;4.57;0.82;;;11.30;99.90;;;;;;5026489;28;20498;-81
2023/11/04 10:16:22;;;;;;;3.92;1.05;;;11.40;99.90;;;;;;5038128;28;20029;-82
2023/11/04 10:18:49;;;;;;;2.75;0.85;;;11.40;99.90;;;;;;5041044;28;20465;-79
2023/11/04 10:21:17;;;;;;;2.55;1.00;;;11.40;99.90;;;;;;5032280;28;20033;-79
2023/11/04 10:23:43;;;;;;;2.83;1.00;;;11.40;99.90;;;;;;5038216;28;20044;-80
2023/11/04 10:26:09;;;;;;;2.05;0.73;;;11.40;99.90;;;;;;5030895;28;20414;-80
2023/11/04 10:28:35;;;;;;;1.45;0.80;;;11.30;99.90;;;;;;5032443;28;20018;-80
2023/11/04 10:31:04;;;;;;;1.45;0.90;;;11.40;99.90;;;;;;5038814;28;20116;-81
2023/11/04 10:33:35;;;;;;;3.13;1.05;;;11.40;99.90;;;;;;5033589;28;20021;-81
2023/11/04 10:36:04;;;;;;;2.28;1.10;;;11.40;99.90;;;;;;5038466;28;20120;-81
2023/11/04 10:38:33;;;;;;;3.33;0.90;;;11.40;99.90;;;;;;5030453;28;20031;-81
2023/11/04 10:41:01;;;;;;;3.30;0.82;;;11.40;99.90;;;;;;5038910;28;20033;-81
2023/11/04 10:43:32;;;;;;;2.30;0.93;;;11.50;99.90;;;;;;5026893;28;20079;-82
2023/11/04 10:46:05;;;;;;;1.95;0.90;;;11.50;99.90;;;;;;5027461;28;20164;-81
2023/11/04 10:48:39;;;;;;;2.38;0.95;;;11.50;99.90;;;;;;5026410;28;20529;-81
2023/11/04 10:51:19;;;;;;;3.90;1.60;;;11.50;99.90;;;;;;5029728;28;20026;-80
2023/11/04 10:53:59;;;;;;;5.53;1.15;;;11.50;99.90;;;;;;5032263;28;20507;-82
2023/11/04 10:56:38;;;;;;;2.10;0.90;;;11.50;99.90;;;;;;5038819;28;20079;-80
2023/11/04 10:59:18;;;;;;;3.08;0.90;;;11.50;99.90;;;;;;5038735;28;20052;-79
2023/11/04 11:01:46;;;;;;;2.85;0.82;;;11.50;99.90;;;;;;5023181;28;20092;-80
2023/11/04 11:04:16;;;;;;;2.28;0.60;;;11.60;99.90;;;;;;5039704;28;20017;-78
2023/11/04 11:06:42;;;;;;;2.05;0.80;;;11.50;99.90;;;;;;5020501;28;20036;-80
2023/11/04 11:09:09;;;;;;;1.75;0.70;;;11.60;99.90;;;;;;5038603;28;20435;-80
2023/11/04 11:11:44;;;;;;;2.42;0.75;;;11.60;99.90;;;;;;5039697;28;20036;-81
2023/11/04 11:14:12;;;;;;;2.42;0.63;;;11.60;99.90;;;;;;5035297;28;20083;-81
2023/11/04 11:16:38;;;;;;;1.17;0.60;;;11.60;99.90;;;;;;5040688;28;20025;-79
2023/11/04 11:19:08;;;;;;;2.63;0.70;;;11.60;99.90;;;;;;5038758;28;20052;-79
2023/11/04 11:21:44;;;;;;;1.23;0.50;;;11.60;99.90;;;;;;5037753;28;20545;-81
2023/11/04 11:24:10;;;;;;;4.07;1.08;;;11.60;99.90;;;;;;5026121;28;20300;-79
2023/11/04 11:26:49;;;;;;;3.15;0.55;;;11.60;99.90;;;;;;5028145;28;20022;-80
2023/11/04 11:29:22;;;;;;;2.47;0.68;;;11.60;99.90;;;;;;5038592;28;20033;-79
2023/11/04 11:31:50;;;;;;;1.13;0.50;;;11.60;99.90;;;;;;5028460;28;20021;-80
2023/11/04 11:34:17;;;;;;;4.88;0.82;;;11.60;99.90;;;;;;5020053;28;20029;-80
2023/11/04 11:36:44;;;;;;;1.92;0.70;;;11.70;99.90;;;;;;5031879;28;20120;-80
2023/11/04 11:39:10;;;;;;;2.35;0.80;;;11.70;99.90;;;;;;5028113;28;20105;-80
2023/11/04 11:41:39;;;;;;;2.38;0.60;;;11.70;99.90;;;;;;5040705;28;20063;-79
2023/11/04 11:44:08;;;;;;;2.35;0.80;;;11.60;99.90;;;;;;5021015;28;20095;-80
2023/11/04 11:46:33;;;;;;;3.05;0.70;;;11.70;99.90;;;;;;5035490;28;20534;-79
2023/11/04 11:48:59;;;;;;;1.48;0.70;;;11.60;99.90;;;;;;5042395;28;20096;-80
2023/11/04 11:51:27;;;;;;;1.48;0.60;;;11.60;99.90;;;;;;5030081;28;20033;-81
2023/11/04 11:53:53;;;;;;;1.75;0.75;;;11.60;99.90;;;;;;5029989;28;20028;-79
2023/11/04 11:56:20;;;;;;;2.13;0.80;;;11.60;99.90;;;;;;5036260;28;20442;-76
2023/11/04 11:58:47;;;;;;;2.08;0.77;;;11.50;99.90;;;;;;5026662;28;20159;-78
2023/11/04 12:01:14;;;;;;;1.58;0.77;;;11.50;99.90;;;;;;5040002;28;20025;-77
2023/11/04 12:03:40;;;;;;;2.80;0.88;;;11.40;99.90;;;;;;5029350;28;20052;-77
2023/11/04 12:06:08;;;;;;;2.05;1.05;;;11.40;99.90;;;;;;5041139;28;20057;-78
2023/11/04 12:08:33;;;;;;;1.98;0.77;;;11.30;99.90;;;;;;5029088;28;20103;-77
2023/11/04 12:11:00;;;;;;;1.77;0.80;;;11.20;99.90;;;;;;5037469;28;20068;-78
2023/11/04 12:13:25;;;;;;;3.63;1.25;;;11.20;99.90;;;;;;5032101;28;20486;-77
2023/11/04 12:15:51;;;;;;;3.50;1.10;;;11.20;99.90;;;;;;5033248;28;20032;-77
2023/11/04 12:18:17;;;;;;;4.20;0.80;;;11.10;99.90;;;;;;5040980;28;20017;-77
2023/11/04 12:20:44;;;;;;;3.03;0.70;;;11.10;99.90;;;;;;5036689;28;20115;-76
2023/11/04 12:23:11;;;;;;;3.05;0.90;;;11.00;99.90;;;;;;5029529;28;20445;-77
2023/11/04 12:25:38;;;;;;;3.38;0.90;;;11.00;99.90;;;;;;5035022;28;20024;-77
2023/11/04 12:28:07;;;;;;;4.00;1.13;;;11.00;99.90;;;;;;5031447;28;20829;-77
2023/11/04 12:30:33;;;;;;;4.50;0.90;;;11.00;99.90;;;;;;5037187;28;20025;-76
2023/11/04 12:33:01;;;;;;;4.68;0.80;;;11.00;99.90;;;;;;5039715;28;20294;-76
2023/11/04 12:35:26;;;;;;;3.88;0.85;;;10.90;99.90;;;;;;5032765;28;20028;-80
2023/11/04 12:37:53;;;;;;;6.88;1.15;;;10.80;99.90;;;;;;5035636;28;20413;-78
2023/11/04 12:40:19;;;;;;;3.42;0.80;;;10.80;99.90;;;;;;5032620;28;20098;-80
2023/11/04 12:42:46;;;;;;;5.32;1.20;;;10.80;99.90;;;;;;5038014;28;20052;-80
2023/11/04 12:45:16;;;;;;;6.15;1.00;;;10.80;99.90;;;;;;5037799;28;20124;-88
2023/11/04 12:47:42;;;;;;;4.30;0.98;;;10.80;99.90;;;;;;5035109;28;20017;-90
2023/11/04 12:50:11;;;;;;;3.78;1.20;;;10.70;99.90;;;;;;5035804;28;20017;-89